ADDS METAR Data INFO
IDs: Format: Raw Decoded Include TAF

Data at: 1716 UTC 23 Oct 2017

KLAW 231653Z 29007KT 10SM CLR 21/08 A3013 RMK AO2 SLP199 T02060083
KLAW 231553Z 25008G14KT 10SM CLR 18/07 A3011 RMK AO2 SLP194 T01830072
KLAW 231453Z VRB03KT 10SM CLR 14/08 A3012 RMK AO2 SLP197 T01390083 53013
KLAW 231353Z 00000KT 10SM CLR 11/08 A3009 RMK AO2 SLP188 T01060078
KLAW 231253Z 00000KT 10SM CLR 08/06 A3008 RMK AO2 SLP187 T00830061
KLAW 231153Z AUTO 24003KT 10SM CLR 09/07 A3008 RMK AO2 SLP184 T00890067 10106 20072 58006
KLAW 231053Z AUTO 28003KT 10SM CLR 08/07 A3009 RMK AO2 SLP185 T00830067
KLAW 230953Z AUTO 00000KT 10SM CLR 07/07 A3009 RMK AO2 SLP187 T00720072
KLAW 230853Z AUTO 00000KT 10SM CLR 08/08 A3010 RMK AO2 SLP188 T00780078 58010
KLAW 230753Z AUTO 00000KT 10SM CLR 08/08 A3011 RMK AO2 SLP192 T00830078
KLAW 230653Z AUTO 00000KT 10SM CLR 08/08 A3012 RMK AO2 SLP195 T00830078
KLAW 230553Z AUTO 00000KT 10SM CLR 11/07 A3013 RMK AO2 SLP199 T01060072 10161 20094 402220094 58006
KLAW 230453Z AUTO 14003KT 10SM CLR 11/07 A3014 RMK AO2 SLP202 T01110072
KLAW 230353Z AUTO 17003KT 10SM CLR 12/07 A3014 RMK AO2 SLP205 T01170072
KLAW 230253Z AUTO 17006KT 10SM CLR 12/07 A3015 RMK AO2 SLP206 T01220072 58000
KLAW 230153Z AUTO 14003KT 10SM CLR 13/08 A3016 RMK AO2 SLP210 T01330078
KLAW 230053Z AUTO 17004KT 10SM CLR 13/09 A3016 RMK AO2 SLP211 T01330094
KLAW 222353Z AUTO 09004KT 10SM CLR 17/08 A3015 RMK AO2 SLP207 T01670078 10222 20167 57008
KLAW 222253Z 00000KT 10SM CLR 22/01 A3015 RMK AO2 SLP206 T02170011
KLAW 222153Z 34007KT 10SM CLR 22/02 A3017 RMK AO2 SLP209 T02170022
KLAW 222053Z 34007KT 10SM CLR 22/03 A3017 RMK AO2 SLP212 T02170033 56021
KLAW 221953Z 34007KT 10SM CLR 22/04 A3019 RMK AO2 SLP217 T02170039
KLAW 221853Z 36006KT 10SM CLR 21/04 A3021 RMK AO2 SLP224 T02060039
KLAW 221753Z 35005KT 10SM CLR 19/05 A3024 RMK AO2 SLP234 T01940050 10200 20100 50003
KLAW 221653Z 35011KT 10SM CLR 19/06 A3025 RMK AO2 SLP239 T01890061
KLAW 221553Z 35009KT 10SM CLR 17/08 A3025 RMK AO2 SLP237 T01720078
KLAW 221453Z 35008KT 10SM CLR 15/08 A3023 RMK AO2 SLP231 T01500083 51026
KLAW 221353Z VRB03KT 10SM CLR 13/11 A3020 RMK AO2 SLP224 T01280111
KLAW 221253Z 36005KT 10SM CLR 11/10 A3018 RMK AO2 SLP215 T01110100
KLAW 221153Z AUTO 36009KT 10SM CLR 11/10 A3015 RMK AO2 SLP202 70101 T01110100 10150 20111 51020
KLAW 221053Z AUTO 35008KT 10SM CLR 12/11 A3013 RMK AO2 SLP196 T01220106
KLAW 220953Z AUTO 01010KT 10SM CLR 13/11 A3011 RMK AO2 SLP188 T01330111
KLAW 220853Z AUTO 02012KT 10SM CLR 14/12 A3009 RMK AO2 SLP180 T01390117 53025
KLAW 220753Z AUTO 01011KT 10SM CLR 14/12 A3003 RMK AO2 SLP162 T01440122
KLAW 220653Z AUTO 01010KT 10SM CLR 14/13 A3002 RMK AO2 SLP160 T01440128
KLAW 220553Z AUTO 35010KT 10SM CLR 15/12 A3001 RMK AO2 SLP154 60101 T01500122 10261 20150 402830150 53014